createdAt,value
2019-05-01T00:00:26.574Z,7.67
2019-05-01T00:01:26.524Z,7.64
2019-05-01T00:02:26.507Z,7.75
2019-05-01T00:03:26.428Z,7.68
2019-05-01T00:04:26.428Z,7.63
2019-05-01T00:05:26.576Z,7.76
2019-05-01T00:06:26.587Z,7.68
2019-05-01T00:07:26.568Z,7.68
2019-05-01T00:08:26.562Z,7.62
2019-05-01T00:09:26.451Z,7.65
2019-05-01T00:10:26.634Z,7.71
2019-05-01T00:11:26.510Z,7.69
2019-05-01T00:12:26.645Z,7.70
2019-05-01T00:13:26.516Z,7.70
2019-05-01T00:14:26.692Z,7.71
2019-05-01T00:15:26.522Z,7.68
2019-05-01T00:16:26.470Z,7.63
2019-05-01T00:17:27.872Z,7.66
2019-05-01T00:18:26.553Z,7.68
2019-05-01T00:19:26.462Z,7.60
2019-05-01T00:20:26.442Z,7.52
2019-05-01T00:21:26.492Z,7.49
2019-05-01T00:22:26.577Z,7.53
2019-05-01T00:23:26.648Z,7.50
2019-05-01T00:24:26.497Z,7.44
2019-05-01T00:25:26.489Z,7.38
2019-05-01T00:26:26.573Z,7.36
2019-05-01T00:27:26.595Z,7.32
2019-05-01T00:28:26.658Z,7.36
2019-05-01T00:29:26.556Z,7.35
2019-05-01T00:30:30.149Z,7.28
2019-05-01T00:31:26.582Z,7.23
2019-05-01T00:32:26.569Z,7.42
2019-05-01T00:33:26.466Z,7.59
2019-05-01T00:34:26.686Z,7.69
2019-05-01T00:35:26.431Z,7.68
2019-05-01T00:36:26.669Z,7.66
2019-05-01T00:37:26.588Z,7.52
2019-05-01T00:38:26.536Z,7.42
2019-05-01T00:39:26.536Z,7.31
2019-05-01T00:40:26.536Z,7.20
2019-05-01T00:41:26.527Z,7.10
2019-05-01T00:42:26.728Z,7.03
2019-05-01T00:43:26.556Z,6.98
2019-05-01T00:44:26.532Z,6.96
2019-05-01T00:45:26.648Z,6.93
2019-05-01T00:46:26.448Z,6.89
2019-05-01T00:47:26.482Z,6.96
2019-05-01T00:48:26.517Z,6.98
2019-05-01T00:49:26.535Z,7.02
2019-05-01T00:50:26.605Z,7.03
2019-05-01T00:51:26.665Z,6.96
2019-05-01T00:52:26.700Z,6.87
2019-05-01T00:53:26.488Z,6.82
2019-05-01T00:54:26.601Z,6.74
2019-05-01T00:55:26.712Z,6.73
2019-05-01T00:56:26.617Z,6.73
2019-05-01T00:57:26.579Z,6.86
2019-05-01T00:58:26.662Z,7.12
2019-05-01T00:59:26.683Z,7.22
2019-05-01T01:00:26.521Z,7.22
2019-05-01T01:01:26.731Z,7.12
2019-05-01T01:02:26.585Z,7.00
2019-05-01T01:03:26.494Z,6.91
2019-05-01T01:04:26.477Z,6.90
2019-05-01T01:05:26.535Z,6.85
2019-05-01T01:06:26.467Z,6.83
2019-05-01T01:07:26.742Z,6.81
2019-05-01T01:08:26.494Z,6.84
2019-05-01T01:09:26.644Z,6.82
2019-05-01T01:10:26.658Z,6.82
2019-05-01T01:11:26.569Z,6.84
2019-05-01T01:12:26.570Z,6.79
2019-05-01T01:13:26.658Z,6.80
2019-05-01T01:14:26.595Z,6.86
2019-05-01T01:15:26.742Z,6.81
2019-05-01T01:16:26.558Z,6.75
2019-05-01T01:17:26.692Z,6.70
2019-05-01T01:18:26.712Z,6.81
2019-05-01T01:19:26.477Z,6.79
2019-05-01T01:20:26.554Z,6.72
2019-05-01T01:21:26.674Z,6.64
2019-05-01T01:22:26.615Z,6.59
2019-05-01T01:23:26.520Z,6.72
2019-05-01T01:24:26.605Z,6.79
2019-05-01T01:25:26.576Z,6.81
2019-05-01T01:26:26.619Z,6.86
2019-05-01T01:27:26.984Z,6.84
2019-05-01T01:28:26.713Z,6.85
2019-05-01T01:29:26.659Z,6.99
2019-05-01T01:30:26.632Z,7.04
2019-05-01T01:31:26.653Z,7.03
2019-05-01T01:32:26.616Z,7.03
2019-05-01T01:33:26.755Z,7.10
2019-05-01T01:34:26.605Z,7.15
2019-05-01T01:35:26.520Z,7.15
2019-05-01T01:36:26.662Z,7.12
2019-05-01T01:37:26.829Z,7.10
2019-05-01T01:38:26.693Z,7.00
2019-05-01T01:39:27.721Z,6.90
2019-05-01T01:40:26.856Z,6.83
2019-05-01T01:41:26.601Z,6.74
2019-05-01T01:42:26.673Z,6.71
2019-05-01T01:43:26.585Z,6.65
2019-05-01T01:44:26.560Z,6.64
2019-05-01T01:45:26.663Z,6.58
2019-05-01T01:46:26.711Z,6.54
2019-05-01T01:47:26.807Z,6.48
2019-05-01T01:48:26.523Z,6.44
2019-05-01T01:49:26.511Z,6.42
2019-05-01T01:50:26.532Z,6.39
2019-05-01T01:51:26.825Z,6.36
2019-05-01T01:52:26.562Z,6.28
2019-05-01T01:53:26.726Z,6.23
2019-05-01T01:54:26.726Z,6.32
2019-05-01T01:55:26.665Z,6.28
2019-05-01T01:56:26.727Z,6.23
2019-05-01T01:57:26.675Z,6.17
2019-05-01T01:58:26.727Z,6.13
2019-05-01T01:59:26.606Z,6.15
2019-05-01T02:00:26.695Z,6.22
2019-05-01T02:01:26.688Z,6.13
2019-05-01T02:02:26.814Z,6.19
2019-05-01T02:03:26.643Z,6.12
2019-05-01T02:04:26.659Z,6.18
2019-05-01T02:05:26.732Z,6.15
2019-05-01T02:06:26.707Z,6.17
2019-05-01T02:07:26.689Z,6.13
2019-05-01T02:08:26.687Z,6.08
2019-05-01T02:09:26.681Z,6.07
2019-05-01T02:10:26.879Z,6.03
2019-05-01T02:11:26.659Z,6.00
2019-05-01T02:12:26.715Z,5.95
2019-05-01T02:13:26.934Z,5.95
2019-05-01T02:14:26.771Z,5.96
2019-05-01T02:15:26.742Z,5.90
2019-05-01T02:16:26.882Z,5.92
2019-05-01T02:17:26.787Z,5.90
2019-05-01T02:18:26.784Z,5.80
2019-05-01T02:19:28.015Z,5.71
2019-05-01T02:20:26.906Z,5.60
2019-05-01T02:21:26.866Z,5.50
2019-05-01T02:22:26.984Z,5.54
2019-05-01T02:23:27.015Z,5.63
2019-05-01T02:24:27.047Z,6.02
2019-05-01T02:25:27.025Z,5.93
2019-05-01T02:26:26.838Z,5.81
2019-05-01T02:27:27.020Z,5.72
2019-05-01T02:28:26.879Z,5.70
2019-05-01T02:29:27.075Z,5.75
2019-05-01T02:30:26.981Z,5.91
2019-05-01T02:31:29.344Z,5.85
2019-05-01T02:32:26.963Z,5.77
2019-05-01T02:33:27.003Z,5.79
2019-05-01T02:34:26.982Z,5.87
2019-05-01T02:35:30.367Z,5.88
2019-05-01T02:36:27.031Z,5.88
2019-05-01T02:37:27.089Z,5.89
2019-05-01T02:38:27.158Z,5.86
2019-05-01T02:39:27.097Z,5.87
2019-05-01T02:40:27.031Z,5.80
2019-05-01T02:41:28.199Z,5.80
2019-05-01T02:42:28.089Z,5.71
2019-05-01T02:43:27.108Z,5.81
2019-05-01T02:44:27.054Z,6.01
2019-05-01T02:45:26.957Z,6.08
2019-05-01T02:46:27.313Z,6.14
2019-05-01T02:47:27.085Z,6.31
2019-05-01T02:48:27.099Z,6.28
2019-05-01T02:49:27.134Z,6.24
2019-05-01T02:50:27.048Z,6.13
2019-05-01T02:51:27.159Z,6.05
2019-05-01T02:52:27.079Z,6.02
2019-05-01T02:53:27.077Z,5.99
2019-05-01T02:54:27.159Z,5.96
2019-05-01T02:55:27.049Z,5.88
2019-05-01T02:56:26.960Z,5.86
2019-05-01T02:57:27.215Z,5.91
2019-05-01T02:58:27.235Z,5.81
2019-05-01T02:59:27.073Z,5.73
2019-05-01T03:00:27.110Z,5.63
2019-05-01T03:01:37.178Z,5.58
2019-05-01T03:02:27.196Z,5.68
2019-05-01T03:03:27.044Z,5.75
2019-05-01T03:04:27.200Z,5.70
2019-05-01T03:05:27.268Z,5.66
2019-05-01T03:06:27.035Z,5.66
2019-05-01T03:07:27.185Z,5.61
2019-05-01T03:08:27.279Z,5.67
2019-05-01T03:09:27.068Z,5.61
2019-05-01T03:10:27.028Z,5.56
2019-05-01T03:11:27.092Z,5.49
2019-05-01T03:12:27.100Z,5.66
2019-05-01T03:13:27.127Z,5.73
2019-05-01T03:14:27.171Z,5.68
2019-05-01T03:15:27.229Z,5.77
2019-05-01T03:16:27.331Z,5.95
2019-05-01T03:17:27.209Z,5.98
2019-05-01T03:18:27.241Z,5.91
2019-05-01T03:19:27.334Z,5.99
2019-05-01T03:20:27.182Z,5.94
2019-05-01T03:21:27.126Z,5.89
2019-05-01T03:22:27.054Z,5.82
2019-05-01T03:23:27.066Z,5.82
2019-05-01T03:24:27.092Z,5.81
2019-05-01T03:25:27.145Z,5.77
2019-05-01T03:26:27.119Z,5.73
2019-05-01T03:27:27.184Z,5.71
2019-05-01T03:28:27.134Z,5.63
2019-05-01T03:29:27.148Z,5.52
2019-05-01T03:30:27.175Z,5.49
2019-05-01T03:31:27.266Z,5.41
2019-05-01T03:32:27.582Z,5.42
2019-05-01T03:33:27.191Z,5.38
2019-05-01T03:34:27.177Z,5.43
2019-05-01T03:35:27.153Z,5.39
2019-05-01T03:36:27.080Z,5.33
2019-05-01T03:37:27.191Z,5.50
2019-05-01T03:38:27.149Z,5.48
2019-05-01T03:39:27.188Z,5.38
2019-05-01T03:40:27.051Z,5.30
2019-05-01T03:41:27.499Z,5.22
2019-05-01T03:42:27.143Z,5.16
2019-05-01T03:43:27.228Z,5.12
2019-05-01T03:44:27.075Z,5.13
2019-05-01T03:45:27.245Z,5.11
2019-05-01T03:46:27.125Z,5.04
2019-05-01T03:47:28.256Z,5.11
2019-05-01T03:48:27.165Z,5.14
2019-05-01T03:49:27.147Z,5.06
2019-05-01T03:50:27.254Z,5.07
2019-05-01T03:51:27.121Z,5.08
2019-05-01T03:52:27.399Z,5.05
2019-05-01T03:53:27.077Z,5.12
2019-05-01T03:54:27.189Z,5.08
2019-05-01T03:55:27.085Z,5.04
2019-05-01T03:56:27.666Z,4.98
2019-05-01T03:57:27.133Z,4.96
2019-05-01T03:58:27.142Z,4.93
2019-05-01T03:59:27.242Z,4.91
2019-05-01T04:00:27.141Z,4.87
2019-05-01T04:01:27.266Z,4.85
2019-05-01T04:02:33.453Z,4.81
2019-05-01T04:03:27.325Z,4.80
2019-05-01T04:04:27.200Z,4.80
2019-05-01T04:05:27.180Z,4.98
2019-05-01T04:06:27.226Z,4.91
2019-05-01T04:07:28.218Z,4.97
2019-05-01T04:08:27.144Z,5.01
2019-05-01T04:09:27.134Z,5.00
2019-05-01T04:10:27.132Z,4.89
2019-05-01T04:11:27.087Z,4.88
2019-05-01T04:12:27.246Z,4.76
2019-05-01T04:13:27.270Z,4.80
2019-05-01T04:14:27.332Z,4.81
2019-05-01T04:15:27.200Z,4.81
2019-05-01T04:16:27.201Z,4.84
2019-05-01T04:17:27.167Z,4.80
2019-05-01T04:18:27.295Z,4.80
2019-05-01T04:19:28.276Z,4.75
2019-05-01T04:20:27.253Z,4.76
2019-05-01T04:21:27.190Z,4.74
2019-05-01T04:22:27.206Z,4.72
2019-05-01T04:23:27.263Z,4.72
2019-05-01T04:24:27.082Z,4.72
2019-05-01T04:25:27.296Z,4.73
2019-05-01T04:26:27.099Z,4.77
2019-05-01T04:27:27.126Z,4.79
2019-05-01T04:28:27.183Z,4.78
2019-05-01T04:29:27.206Z,4.70
2019-05-01T04:30:27.157Z,4.71
2019-05-01T04:31:27.395Z,4.77
2019-05-01T04:32:27.223Z,4.77
2019-05-01T04:33:27.216Z,4.75
2019-05-01T04:34:27.193Z,4.81
2019-05-01T04:35:27.298Z,4.73
2019-05-01T04:36:27.302Z,4.78
2019-05-01T04:37:27.348Z,4.84
2019-05-01T04:38:27.214Z,4.78
2019-05-01T04:39:27.255Z,4.78
2019-05-01T04:40:27.329Z,4.77
2019-05-01T04:41:27.138Z,4.72
2019-05-01T04:42:27.304Z,4.76
2019-05-01T04:43:27.376Z,4.73
2019-05-01T04:44:27.288Z,4.78
2019-05-01T04:45:27.230Z,4.82
2019-05-01T04:46:27.322Z,4.69
2019-05-01T04:47:27.635Z,4.66
2019-05-01T04:48:27.484Z,4.70
2019-05-01T04:49:27.523Z,4.75
2019-05-01T04:50:27.437Z,4.64
2019-05-01T04:51:27.438Z,4.53
2019-05-01T04:52:27.402Z,4.54
2019-05-01T04:53:27.533Z,4.62
2019-05-01T04:54:27.430Z,4.57
2019-05-01T04:55:27.508Z,4.56
2019-05-01T04:56:27.471Z,4.56
2019-05-01T04:57:27.547Z,4.62
2019-05-01T04:58:27.607Z,4.64
2019-05-01T04:59:27.504Z,4.72
2019-05-01T05:00:27.448Z,4.68
2019-05-01T05:01:27.493Z,4.66
2019-05-01T05:02:27.529Z,4.69
2019-05-01T05:03:27.565Z,4.59
2019-05-01T05:04:27.630Z,4.60
2019-05-01T05:05:27.637Z,4.59
2019-05-01T05:06:27.526Z,4.59
2019-05-01T05:07:27.648Z,4.53
2019-05-01T05:08:27.571Z,4.56
2019-05-01T05:09:27.742Z,4.60
2019-05-01T05:10:27.685Z,4.58
2019-05-01T05:11:27.752Z,4.64
2019-05-01T05:12:27.749Z,4.61
2019-05-01T05:13:27.705Z,4.72
2019-05-01T05:14:27.663Z,4.80
2019-05-01T05:15:27.711Z,4.67
2019-05-01T05:16:28.009Z,4.80
2019-05-01T05:17:27.815Z,4.65
2019-05-01T05:18:28.083Z,4.82
2019-05-01T05:19:27.778Z,4.72
2019-05-01T05:20:27.922Z,4.92
2019-05-01T05:21:27.805Z,4.88
2019-05-01T05:22:27.778Z,5.01
2019-05-01T05:23:27.729Z,4.99
2019-05-01T05:24:27.744Z,5.01
2019-05-01T05:25:27.834Z,4.95
2019-05-01T05:26:27.820Z,4.95
2019-05-01T05:27:27.728Z,4.94
2019-05-01T05:28:27.910Z,5.00
2019-05-01T05:29:27.841Z,5.12
2019-05-01T05:30:27.795Z,5.19
2019-05-01T05:31:28.068Z,5.26
2019-05-01T05:32:27.811Z,5.32
2019-05-01T05:33:27.795Z,5.36
2019-05-01T05:34:28.156Z,5.29
2019-05-01T05:35:27.906Z,5.11
2019-05-01T05:36:28.099Z,5.03
2019-05-01T05:37:28.028Z,5.01
2019-05-01T05:38:28.021Z,5.05
2019-05-01T05:39:27.959Z,4.99
2019-05-01T05:40:28.015Z,5.02
2019-05-01T05:41:28.103Z,5.08
2019-05-01T05:42:28.096Z,5.14
2019-05-01T05:43:28.064Z,5.25
2019-05-01T05:44:28.095Z,5.22
2019-05-01T05:45:28.099Z,5.32
2019-05-01T05:46:27.985Z,5.32
2019-05-01T05:47:28.035Z,5.41
2019-05-01T05:48:28.197Z,5.51
2019-05-01T05:49:28.019Z,5.47
2019-05-01T05:50:28.004Z,5.42
2019-05-01T05:51:28.074Z,5.57
2019-05-01T05:52:28.037Z,5.51
2019-05-01T05:53:28.457Z,5.41
2019-05-01T05:54:28.105Z,5.39
2019-05-01T05:55:28.163Z,5.35
2019-05-01T05:56:28.065Z,5.36
2019-05-01T05:57:29.925Z,5.26
2019-05-01T05:58:28.288Z,5.27
2019-05-01T05:59:28.160Z,5.28
2019-05-01T06:00:28.143Z,5.32
2019-05-01T06:01:28.111Z,5.29
2019-05-01T06:02:28.207Z,5.34
2019-05-01T06:03:31.617Z,5.33
2019-05-01T06:04:28.273Z,5.35
2019-05-01T06:05:28.212Z,5.53
2019-05-01T06:06:28.161Z,5.67
2019-05-01T06:07:28.130Z,5.73
2019-05-01T06:08:28.091Z,5.80
2019-05-01T06:09:28.195Z,5.83
2019-05-01T06:10:28.202Z,5.85
2019-05-01T06:11:29.761Z,5.93
2019-05-01T06:12:28.205Z,5.98
2019-05-01T06:13:28.179Z,6.02
2019-05-01T06:14:31.411Z,5.89
2019-05-01T06:15:28.335Z,5.88
2019-05-01T06:16:29.255Z,6.03
2019-05-01T06:17:28.748Z,6.23
2019-05-01T06:18:28.279Z,6.32
2019-05-01T06:19:28.132Z,6.25
2019-05-01T06:20:28.158Z,6.34
2019-05-01T06:21:28.117Z,6.20
2019-05-01T06:22:28.153Z,6.36
2019-05-01T06:23:29.176Z,6.10
2019-05-01T06:24:28.198Z,6.01
2019-05-01T06:25:28.296Z,6.12
2019-05-01T06:26:31.938Z,6.39
2019-05-01T06:27:28.374Z,6.25
2019-05-01T06:28:29.735Z,6.12
2019-05-01T06:29:30.918Z,6.17
2019-05-01T06:30:28.152Z,6.30
2019-05-01T06:31:28.184Z,6.35
2019-05-01T06:32:28.831Z,6.51
2019-05-01T06:33:28.196Z,6.51
2019-05-01T06:34:28.668Z,6.57
2019-05-01T06:35:28.208Z,6.65
2019-05-01T06:36:28.215Z,6.74
2019-05-01T06:37:28.207Z,6.81
2019-05-01T06:38:31.474Z,6.50
2019-05-01T06:39:28.243Z,6.50
2019-05-01T06:40:28.087Z,5.99
2019-05-01T06:41:28.715Z,5.94
2019-05-01T06:42:28.253Z,5.97
2019-05-01T06:43:28.219Z,5.80
2019-05-01T06:44:28.186Z,5.69
2019-05-01T06:45:28.213Z,5.63
2019-05-01T06:46:29.113Z,5.82
2019-05-01T06:47:29.235Z,6.19
2019-05-01T06:48:28.279Z,6.42
2019-05-01T06:49:29.322Z,6.66
2019-05-01T06:50:28.252Z,6.70
2019-05-01T06:51:28.172Z,6.69
2019-05-01T06:52:29.304Z,6.82
2019-05-01T06:53:28.085Z,6.39
2019-05-01T06:54:28.264Z,6.02
2019-05-01T06:55:28.953Z,6.16
2019-05-01T06:56:28.229Z,6.24
2019-05-01T06:57:28.193Z,6.32
2019-05-01T06:58:28.264Z,6.10
2019-05-01T06:59:31.562Z,5.91
2019-05-01T07:00:28.197Z,6.13
2019-05-01T07:01:28.208Z,6.16
2019-05-01T07:02:29.933Z,6.46
2019-05-01T07:03:28.200Z,6.58
2019-05-01T07:04:32.422Z,6.43
2019-05-01T07:05:28.109Z,6.05
2019-05-01T07:06:31.036Z,6.25
2019-05-01T07:07:28.277Z,6.19
2019-05-01T07:08:29.592Z,6.06
2019-05-01T07:09:28.424Z,6.20
2019-05-01T07:10:30.890Z,6.26
2019-05-01T07:11:28.190Z,6.33
2019-05-01T07:12:29.808Z,6.61
2019-05-01T07:13:28.186Z,6.68
2019-05-01T07:14:28.185Z,6.58
2019-05-01T07:15:28.447Z,6.32
2019-05-01T07:16:28.250Z,6.33
2019-05-01T07:17:28.251Z,6.39
2019-05-01T07:18:29.221Z,6.66
2019-05-01T07:19:28.212Z,6.68
2019-05-01T07:20:28.295Z,6.99
2019-05-01T07:21:32.412Z,7.44
2019-05-01T07:22:28.156Z,7.58
2019-05-01T07:23:28.288Z,7.72
2019-05-01T07:24:29.090Z,7.44
2019-05-01T07:25:28.126Z,7.55
2019-05-01T07:26:28.242Z,7.89
2019-05-01T07:27:28.296Z,7.85
2019-05-01T07:28:32.359Z,7.43
2019-05-01T07:29:28.148Z,6.89
2019-05-01T07:30:28.223Z,6.76
2019-05-01T07:31:30.907Z,6.79
2019-05-01T07:32:28.404Z,7.06
2019-05-01T07:33:28.263Z,7.73
2019-05-01T07:34:28.285Z,8.22
2019-05-01T07:35:32.965Z,8.45
2019-05-01T07:36:28.288Z,8.65
2019-05-01T07:37:28.151Z,8.55
2019-05-01T07:38:28.303Z,8.75
2019-05-01T07:39:28.279Z,8.87
2019-05-01T07:40:30.101Z,8.85
2019-05-01T07:41:28.253Z,8.97
2019-05-01T07:42:28.182Z,8.79
2019-05-01T07:43:28.470Z,7.92
2019-05-01T07:44:30.070Z,7.12
2019-05-01T07:45:28.331Z,6.66
2019-05-01T07:46:28.116Z,6.75
2019-05-01T07:47:30.536Z,7.07
2019-05-01T07:48:28.105Z,7.05
2019-05-01T07:49:28.238Z,6.95
2019-05-01T07:50:31.576Z,7.24
2019-05-01T07:51:28.294Z,7.32
2019-05-01T07:52:28.321Z,7.35
2019-05-01T07:53:28.495Z,7.33
2019-05-01T07:54:28.475Z,7.25
2019-05-01T07:55:28.292Z,7.15
2019-05-01T07:56:29.971Z,7.13
2019-05-01T07:57:28.228Z,6.95
2019-05-01T07:58:28.223Z,7.09
2019-05-01T07:59:28.742Z,7.31
2019-05-01T08:00:28.381Z,7.23
2019-05-01T08:01:28.233Z,7.43
2019-05-01T08:02:31.162Z,7.12
2019-05-01T08:03:28.264Z,7.19
2019-05-01T08:05:28.457Z,7.57
2019-05-01T08:06:28.963Z,7.76
2019-05-01T08:07:32.418Z,7.51
2019-05-01T08:08:28.287Z,7.35
2019-05-01T08:09:28.330Z,7.41
2019-05-01T08:10:31.445Z,7.48
2019-05-01T08:11:28.664Z,7.50
2019-05-01T08:12:28.299Z,7.90
2019-05-01T08:13:30.708Z,8.10
2019-05-01T08:14:28.274Z,7.84
2019-05-01T08:15:32.380Z,7.55
2019-05-01T08:16:28.506Z,7.83
2019-05-01T08:17:28.511Z,8.02
2019-05-01T08:18:29.282Z,8.37
2019-05-01T08:19:28.168Z,7.88
2019-05-01T08:20:28.287Z,7.91
2019-05-01T08:21:28.332Z,7.90
2019-05-01T08:22:32.048Z,7.60
2019-05-01T08:23:28.285Z,7.93
2019-05-01T08:24:28.330Z,7.51
2019-05-01T08:25:28.677Z,7.79
2019-05-01T08:26:28.317Z,7.59
2019-05-01T08:27:28.455Z,7.62
2019-05-01T08:28:32.054Z,7.71
2019-05-01T08:29:28.305Z,7.90
2019-05-01T08:30:28.225Z,8.07
2019-05-01T08:31:29.109Z,7.75
2019-05-01T08:32:28.389Z,7.78
2019-05-01T08:33:28.436Z,7.81
2019-05-01T08:34:29.804Z,7.88
2019-05-01T08:35:31.857Z,8.20
2019-05-01T08:36:28.442Z,8.65
2019-05-01T08:37:28.339Z,9.07
2019-05-01T08:38:29.888Z,9.20
2019-05-01T08:39:28.337Z,9.41
2019-05-01T08:40:28.417Z,8.98
2019-05-01T08:41:31.841Z,8.90
2019-05-01T08:42:28.499Z,8.90
2019-05-01T08:43:28.247Z,8.70
2019-05-01T08:44:29.631Z,8.91
2019-05-01T08:45:28.880Z,8.87
2019-05-01T08:46:28.414Z,8.87
2019-05-01T08:47:28.286Z,8.77
2019-05-01T08:48:30.774Z,8.97
2019-05-01T08:49:28.507Z,9.37
2019-05-01T08:50:28.395Z,9.97
2019-05-01T08:51:30.161Z,10.61
2019-05-01T08:52:28.351Z,10.59
2019-05-01T08:53:28.411Z,10.32
2019-05-01T08:54:28.815Z,9.97
2019-05-01T08:55:28.408Z,9.50
2019-05-01T08:56:28.308Z,9.66
2019-05-01T08:57:29.022Z,10.16
2019-05-01T08:58:28.277Z,10.75
2019-05-01T08:59:28.389Z,11.40
2019-05-01T09:00:30.982Z,11.72
2019-05-01T09:01:28.339Z,12.09
2019-05-01T09:02:28.600Z,10.74
2019-05-01T09:03:28.311Z,10.17
2019-05-01T09:04:30.593Z,9.87
2019-05-01T09:05:31.281Z,10.47
2019-05-01T09:06:34.848Z,10.70
2019-05-01T09:07:28.428Z,11.63
2019-05-01T09:08:31.956Z,11.12
2019-05-01T09:09:28.351Z,11.53
2019-05-01T09:10:28.370Z,11.84
2019-05-01T09:11:31.846Z,12.16
2019-05-01T09:12:28.350Z,11.87
2019-05-01T09:13:28.242Z,11.78
2019-05-01T09:14:29.724Z,12.45
2019-05-01T09:15:28.393Z,12.82
2019-05-01T09:16:30.102Z,12.98
2019-05-01T09:17:28.401Z,11.90
2019-05-01T09:18:28.457Z,11.23
2019-05-01T09:19:28.377Z,11.71
2019-05-01T09:20:32.085Z,11.89
2019-05-01T09:21:28.400Z,12.00
2019-05-01T09:22:28.581Z,11.24
2019-05-01T09:23:28.335Z,11.06
2019-05-01T09:24:29.409Z,11.40
2019-05-01T09:25:30.985Z,11.76
2019-05-01T09:26:28.627Z,11.86
2019-05-01T09:27:29.279Z,11.67
2019-05-01T09:28:28.401Z,12.18
2019-05-01T09:29:28.924Z,11.09
2019-05-01T09:30:28.821Z,11.00
2019-05-01T09:31:28.394Z,10.95
2019-05-01T09:32:28.351Z,11.51
2019-05-01T09:33:30.883Z,11.28
2019-05-01T09:34:28.373Z,11.33
2019-05-01T09:35:28.307Z,11.73
2019-05-01T09:36:28.388Z,11.84
2019-05-01T09:37:28.384Z,11.82
2019-05-01T09:38:28.365Z,11.91
2019-05-01T09:39:28.415Z,12.04
2019-05-01T09:40:28.417Z,12.45
2019-05-01T09:41:38.097Z,13.25
2019-05-01T09:42:28.431Z,13.01
2019-05-01T09:43:30.898Z,12.76
2019-05-01T09:44:28.541Z,12.34
2019-05-01T09:45:28.419Z,12.21
2019-05-01T09:46:28.469Z,11.95
2019-05-01T09:47:28.311Z,11.53
2019-05-01T09:48:28.312Z,12.15
2019-05-01T09:49:28.477Z,12.88
2019-05-01T09:50:30.436Z,13.48
2019-05-01T09:51:28.394Z,14.11
2019-05-01T09:52:28.429Z,14.50
2019-05-01T09:53:29.764Z,14.61
2019-05-01T09:54:28.421Z,14.69
2019-05-01T09:55:28.588Z,14.59
2019-05-01T09:56:28.370Z,14.51
2019-05-01T09:57:28.478Z,14.02
2019-05-01T09:58:28.462Z,12.72
2019-05-01T09:59:28.389Z,12.77
2019-05-01T10:00:28.419Z,13.25
2019-05-01T10:01:32.045Z,13.92
2019-05-01T10:02:28.410Z,14.20
2019-05-01T10:03:28.317Z,14.87
2019-05-01T10:04:30.226Z,15.12
2019-05-01T10:05:29.263Z,15.58
2019-05-01T10:06:28.836Z,14.82
2019-05-01T10:07:29.105Z,14.46
2019-05-01T10:08:28.399Z,14.60
2019-05-01T10:09:28.388Z,14.85
2019-05-01T10:10:29.373Z,15.06
2019-05-01T10:11:28.408Z,14.99
2019-05-01T10:12:28.481Z,14.46
2019-05-01T10:13:28.383Z,13.91
2019-05-01T10:14:31.630Z,14.15
2019-05-01T10:15:28.432Z,14.62
2019-05-01T10:16:28.496Z,14.37
2019-05-01T10:17:28.460Z,15.08
2019-05-01T10:18:28.621Z,15.21
2019-05-01T10:19:28.412Z,15.69
2019-05-01T10:20:28.798Z,15.90
2019-05-01T10:21:28.905Z,14.76
2019-05-01T10:22:28.444Z,13.97
2019-05-01T10:23:28.397Z,14.48
2019-05-01T10:24:31.941Z,13.84
2019-05-01T10:25:28.457Z,13.46
2019-05-01T10:26:28.470Z,13.61
2019-05-01T10:27:30.859Z,13.69
2019-05-01T10:28:28.560Z,13.95
2019-05-01T10:29:28.456Z,14.36
2019-05-01T10:30:31.729Z,14.89
2019-05-01T10:31:28.516Z,14.81
2019-05-01T10:32:28.439Z,14.97
2019-05-01T10:33:29.079Z,14.79
2019-05-01T10:34:28.622Z,14.05
2019-05-01T10:35:41.558Z,13.76
2019-05-01T10:36:28.501Z,13.87
2019-05-01T10:37:33.155Z,14.34
2019-05-01T10:38:28.414Z,14.69
2019-05-01T10:39:30.196Z,14.68
2019-05-01T10:40:32.241Z,14.54
2019-05-01T10:41:28.584Z,14.42
2019-05-01T10:42:28.481Z,14.09
2019-05-01T10:43:28.484Z,14.21
2019-05-01T10:44:28.486Z,14.09
2019-05-01T10:45:28.469Z,14.83
2019-05-01T10:46:28.467Z,15.69
2019-05-01T10:47:28.536Z,15.24
2019-05-01T10:48:28.487Z,15.37
2019-05-01T10:49:28.550Z,15.48
2019-05-01T10:50:28.648Z,15.32
2019-05-01T10:51:28.497Z,15.43
2019-05-01T10:52:28.428Z,15.79
2019-05-01T10:53:28.461Z,16.42
2019-05-01T10:54:28.469Z,16.56
2019-05-01T10:55:28.407Z,16.72
2019-05-01T10:56:28.426Z,16.89
2019-05-01T10:57:28.509Z,16.93
2019-05-01T10:58:28.648Z,16.79
2019-05-01T10:59:28.455Z,16.82
2019-05-01T11:00:28.447Z,17.29
2019-05-01T11:01:28.750Z,17.25
2019-05-01T11:02:28.401Z,17.27
2019-05-01T11:03:28.485Z,17.32
2019-05-01T11:04:28.491Z,17.47
2019-05-01T11:05:28.534Z,17.58
2019-05-01T11:06:28.528Z,17.85
2019-05-01T11:07:29.063Z,17.54
2019-05-01T11:08:31.075Z,17.35
2019-05-01T11:09:28.612Z,17.02
2019-05-01T11:10:28.611Z,16.93
2019-05-01T11:11:28.541Z,17.01
2019-05-01T11:12:28.676Z,17.12
2019-05-01T11:13:28.505Z,17.15
2019-05-01T11:14:28.512Z,17.18
2019-05-01T11:15:28.519Z,16.90
2019-05-01T11:16:28.630Z,16.75
2019-05-01T11:17:28.400Z,15.75
2019-05-01T11:18:28.764Z,15.06
2019-05-01T11:19:29.734Z,14.78
2019-05-01T11:20:28.581Z,14.88
2019-05-01T11:21:28.502Z,15.18
2019-05-01T11:22:28.575Z,15.38
2019-05-01T11:23:28.714Z,14.83
2019-05-01T11:24:28.743Z,14.52
2019-05-01T11:25:28.622Z,14.63
2019-05-01T11:26:28.539Z,15.23
2019-05-01T11:27:28.546Z,15.57
2019-05-01T11:28:28.523Z,15.73
2019-05-01T11:29:28.545Z,15.64
2019-05-01T11:30:28.458Z,15.84
2019-05-01T11:31:28.584Z,15.96
2019-05-01T11:32:28.500Z,15.63
2019-05-01T11:33:28.537Z,15.93
2019-05-01T11:34:28.719Z,16.69
2019-05-01T11:35:28.908Z,17.07
2019-05-01T11:36:28.641Z,17.62
2019-05-01T11:37:28.599Z,18.01
2019-05-01T11:38:28.611Z,17.32
2019-05-01T11:39:28.523Z,15.90
2019-05-01T11:40:28.483Z,15.48
2019-05-01T11:41:28.668Z,15.94
2019-05-01T11:42:28.924Z,15.63
2019-05-01T11:43:28.558Z,16.20
2019-05-01T11:44:28.677Z,16.05
2019-05-01T11:45:28.641Z,16.38
2019-05-01T11:46:28.648Z,16.27
2019-05-01T11:47:28.520Z,17.27
2019-05-01T11:48:30.236Z,17.81
2019-05-01T11:49:28.526Z,17.89
2019-05-01T11:50:28.616Z,17.90
2019-05-01T11:51:28.513Z,17.91
2019-05-01T11:52:28.756Z,18.25
2019-05-01T11:53:28.489Z,17.98
2019-05-01T11:54:28.608Z,17.47
2019-05-01T11:55:28.619Z,17.56
2019-05-01T11:56:28.660Z,18.03
2019-05-01T11:57:28.622Z,18.25
2019-05-01T11:58:28.537Z,18.53
2019-05-01T11:59:28.611Z,18.73
2019-05-01T12:00:28.610Z,18.74
2019-05-01T12:01:28.670Z,18.68
2019-05-01T12:02:28.710Z,18.79
2019-05-01T12:03:28.610Z,18.20
2019-05-01T12:04:28.496Z,18.58
2019-05-01T12:05:28.617Z,18.50
2019-05-01T12:06:28.635Z,18.44
2019-05-01T12:07:28.786Z,18.65
2019-05-01T12:08:28.585Z,18.71
2019-05-01T12:09:28.625Z,19.04
2019-05-01T12:10:28.545Z,17.90
2019-05-01T12:11:28.744Z,17.32
2019-05-01T12:12:28.586Z,17.65
2019-05-01T12:13:28.614Z,18.28
2019-05-01T12:14:28.544Z,16.90
2019-05-01T12:15:28.716Z,17.59
2019-05-01T12:16:28.758Z,18.34
2019-05-01T12:17:28.607Z,17.64
2019-05-01T12:18:28.812Z,17.48
2019-05-01T12:19:28.532Z,16.19
2019-05-01T12:20:28.616Z,16.56
2019-05-01T12:21:28.561Z,16.51
2019-05-01T12:22:29.430Z,17.05
2019-05-01T12:23:28.681Z,17.54
2019-05-01T12:24:28.892Z,17.95
2019-05-01T12:25:28.663Z,18.67
2019-05-01T12:26:28.622Z,19.17
2019-05-01T12:27:28.586Z,19.63
2019-05-01T12:28:28.722Z,19.55
2019-05-01T12:29:28.843Z,19.58
2019-05-01T12:30:28.490Z,19.51
2019-05-01T12:31:31.301Z,19.39
2019-05-01T12:32:28.748Z,18.01
2019-05-01T12:33:28.821Z,17.84
2019-05-01T12:34:28.608Z,18.18
2019-05-01T12:35:28.615Z,19.02
2019-05-01T12:36:36.136Z,18.78
2019-05-01T12:37:28.677Z,18.04
2019-05-01T12:38:28.686Z,18.75
2019-05-01T12:39:28.639Z,18.65
2019-05-01T12:40:28.640Z,19.03
2019-05-01T12:41:28.690Z,18.43
2019-05-01T12:42:28.683Z,18.34
2019-05-01T12:43:28.608Z,19.03
2019-05-01T12:44:28.627Z,19.33
2019-05-01T12:45:28.662Z,19.71
2019-05-01T12:46:28.728Z,19.40
2019-05-01T12:47:28.601Z,19.85
2019-05-01T12:48:28.758Z,18.92
2019-05-01T12:49:28.613Z,19.57
2019-05-01T12:50:28.638Z,19.81
2019-05-01T12:51:28.836Z,19.04
2019-05-01T12:52:28.670Z,18.93
2019-05-01T12:53:28.683Z,19.33
2019-05-01T12:54:28.704Z,19.33
2019-05-01T12:55:28.597Z,18.15
2019-05-01T12:56:28.748Z,18.54
2019-05-01T12:57:28.721Z,19.19
2019-05-01T12:58:28.710Z,19.23
2019-05-01T12:59:28.628Z,19.76
2019-05-01T13:00:28.647Z,19.89
2019-05-01T13:01:28.786Z,20.34
2019-05-01T13:02:28.817Z,20.80
2019-05-01T13:03:28.639Z,20.69
2019-05-01T13:04:28.639Z,20.36
2019-05-01T13:05:28.911Z,20.11
2019-05-01T13:06:28.771Z,19.96
2019-05-01T13:07:28.665Z,19.29
2019-05-01T13:08:28.835Z,19.60
2019-05-01T13:09:28.691Z,19.36
2019-05-01T13:10:28.706Z,19.61